createdAt,value
2022-08-26T00:00:26.601Z,75.68
2022-08-26T00:04:03.867Z,75.55
2022-08-26T00:07:58.701Z,75.57
2022-08-26T00:11:26.934Z,75.38
2022-08-26T00:14:57.510Z,75.23
2022-08-26T00:18:38.832Z,75.19
2022-08-26T00:22:30.576Z,75.91
2022-08-26T00:25:53.252Z,76.47
2022-08-26T00:29:29.099Z,76.39
2022-08-26T00:33:06.322Z,76.29
2022-08-26T00:36:43.522Z,76.14
2022-08-26T00:40:24.541Z,75.97
2022-08-26T00:44:14.837Z,76.20
2022-08-26T00:47:49.648Z,76.46
2022-08-26T00:51:23.273Z,76.86
2022-08-26T00:55:20.230Z,77.08
2022-08-26T00:59:06.030Z,77.26
2022-08-26T01:02:28.887Z,77.13
2022-08-26T01:06:24.410Z,76.98
2022-08-26T01:09:48.330Z,77.07
2022-08-26T01:13:25.455Z,77.33
2022-08-26T01:17:03.676Z,77.53
2022-08-26T01:21:11.582Z,77.62
2022-08-26T01:24:53.749Z,77.43
2022-08-26T01:28:23.139Z,77.36
2022-08-26T01:32:15.465Z,77.14
2022-08-26T01:35:37.991Z,76.97
2022-08-26T01:39:13.598Z,77.17
2022-08-26T01:43:16.491Z,77.74
2022-08-26T01:46:38.043Z,77.71
2022-08-26T01:50:27.856Z,77.44
2022-08-26T01:53:52.546Z,77.27
2022-08-26T01:57:51.618Z,77.13
2022-08-26T02:01:19.782Z,77.09
2022-08-26T02:05:02.296Z,77.29
2022-08-26T02:08:41.940Z,77.48
2022-08-26T02:12:10.853Z,77.84
2022-08-26T02:16:05.300Z,78.09
2022-08-26T02:19:33.489Z,77.98
2022-08-26T02:23:07.765Z,77.84
2022-08-26T02:26:45.830Z,77.96
2022-08-26T02:30:26.095Z,78.06
2022-08-26T02:34:21.490Z,78.43
2022-08-26T02:37:43.906Z,78.67
2022-08-26T02:41:44.946Z,79.03
2022-08-26T02:45:27.476Z,79.08
2022-08-26T02:49:09.640Z,78.93
2022-08-26T02:52:30.817Z,78.52
2022-08-26T02:56:08.842Z,78.14
2022-08-26T02:59:44.740Z,78.11
2022-08-26T03:03:23.558Z,78.31
2022-08-26T03:06:58.469Z,78.68
2022-08-26T03:10:34.969Z,78.91
2022-08-26T03:14:11.907Z,78.80
2022-08-26T03:17:50.388Z,78.50
2022-08-26T03:21:44.354Z,78.17
2022-08-26T03:25:12.040Z,78.19
2022-08-26T03:29:04.245Z,78.45
2022-08-26T03:32:26.926Z,78.72
2022-08-26T03:36:04.122Z,78.95
2022-08-26T03:39:39.766Z,78.85
2022-08-26T03:43:17.246Z,78.61
2022-08-26T03:46:54.989Z,78.51
2022-08-26T03:50:31.148Z,78.44
2022-08-26T03:54:08.194Z,78.63
2022-08-26T03:57:44.111Z,79.04
2022-08-26T04:01:21.529Z,79.37
2022-08-26T04:04:57.551Z,79.69
2022-08-26T04:08:34.485Z,79.79
2022-08-26T04:12:11.075Z,79.56
2022-08-26T04:15:47.928Z,79.68
2022-08-26T04:19:25.726Z,80.07
2022-08-26T04:23:01.695Z,80.41
2022-08-26T04:26:39.542Z,80.61
2022-08-26T04:30:16.685Z,80.65
2022-08-26T04:33:52.326Z,80.58
2022-08-26T04:37:28.587Z,80.67
2022-08-26T04:41:24.513Z,80.94
2022-08-26T04:44:46.457Z,81.15
2022-08-26T04:48:23.186Z,81.08
2022-08-26T04:52:00.522Z,80.76
2022-08-26T04:55:38.667Z,80.46
2022-08-26T04:59:16.624Z,80.19
2022-08-26T05:02:51.571Z,80.12
2022-08-26T05:06:28.232Z,80.29
2022-08-26T05:10:05.122Z,80.39
2022-08-26T05:13:41.991Z,80.45
2022-08-26T05:17:37.668Z,80.27
2022-08-26T05:21:02.351Z,80.03
2022-08-26T05:24:36.717Z,79.84
2022-08-26T05:28:16.982Z,79.66
2022-08-26T05:31:52.439Z,79.70
2022-08-26T05:35:31.973Z,79.65
2022-08-26T05:39:06.408Z,79.32
2022-08-26T05:42:40.628Z,78.95
2022-08-26T05:46:18.155Z,78.38
2022-08-26T05:49:55.443Z,78.14
2022-08-26T05:53:32.580Z,77.99
2022-08-26T05:57:07.900Z,77.92
2022-08-26T06:00:45.224Z,77.80
2022-08-26T06:04:40.424Z,77.38
2022-08-26T06:08:11.255Z,77.10
2022-08-26T06:11:40.234Z,76.60
2022-08-26T06:15:16.549Z,76.31
2022-08-26T06:18:54.124Z,76.09
2022-08-26T06:22:48.023Z,76.06
2022-08-26T06:26:12.228Z,75.64
2022-08-26T06:30:09.311Z,75.19
2022-08-26T06:33:32.503Z,74.56
2022-08-26T06:37:08.897Z,74.15
2022-08-26T06:40:48.703Z,73.67
2022-08-26T06:44:21.419Z,73.41
2022-08-26T06:47:58.782Z,73.11
2022-08-26T06:51:37.191Z,73.09
2022-08-26T06:55:14.727Z,72.73
2022-08-26T06:58:48.726Z,72.67
2022-08-26T07:02:25.157Z,72.42
2022-08-26T07:06:03.348Z,71.94
2022-08-26T07:09:38.951Z,71.54
2022-08-26T07:13:15.579Z,71.60
2022-08-26T07:17:14.208Z,71.34
2022-08-26T07:20:40.309Z,70.82
2022-08-26T07:24:13.584Z,70.71
2022-08-26T07:27:54.278Z,70.69
2022-08-26T07:31:47.074Z,70.54
2022-08-26T07:35:10.487Z,70.18
2022-08-26T07:38:48.395Z,69.13
2022-08-26T07:42:24.600Z,68.63
2022-08-26T07:46:27.115Z,68.28
2022-08-26T07:49:53.583Z,67.57
2022-08-26T07:53:29.082Z,67.03
2022-08-26T07:57:09.363Z,65.74
2022-08-26T08:00:43.048Z,65.94
2022-08-26T08:04:26.190Z,65.53
2022-08-26T08:08:00.848Z,65.58
2022-08-26T08:11:58.021Z,65.37
2022-08-26T08:15:25.298Z,65.73
2022-08-26T08:19:00.290Z,65.73
2022-08-26T08:22:54.249Z,65.78
2022-08-26T08:26:17.677Z,65.00
2022-08-26T08:29:55.005Z,63.81
2022-08-26T08:33:31.333Z,63.34
2022-08-26T08:37:25.822Z,62.74
2022-08-26T08:40:48.260Z,62.13
2022-08-26T08:48:27.767Z,62.59
2022-08-26T08:52:04.954Z,61.40
2022-08-26T08:55:42.616Z,60.86
2022-08-26T08:59:18.132Z,61.12
2022-08-26T09:03:01.788Z,60.80
2022-08-26T09:06:46.577Z,59.50
2022-08-26T09:10:43.955Z,58.49
2022-08-26T09:14:27.265Z,58.91
2022-08-26T09:18:14.493Z,57.48
2022-08-26T09:21:38.032Z,57.96
2022-08-26T09:25:15.673Z,57.01
2022-08-26T09:29:31.473Z,56.36
2022-08-26T09:33:10.922Z,55.49
2022-08-26T09:36:41.438Z,54.36
2022-08-26T09:40:35.491Z,55.51
2022-08-26T09:44:19.284Z,55.47
2022-08-26T09:48:03.399Z,54.28
2022-08-26T09:51:32.034Z,54.74
2022-08-26T09:55:14.012Z,52.93
2022-08-26T09:58:45.231Z,53.70
2022-08-26T10:02:32.527Z,53.27
2022-08-26T10:06:00.526Z,53.03
2022-08-26T10:09:39.406Z,52.32
2022-08-26T10:13:33.407Z,52.58
2022-08-26T10:17:07.605Z,51.01
2022-08-26T10:20:41.701Z,51.40
2022-08-26T10:24:17.380Z,51.96
2022-08-26T10:28:11.159Z,50.61
2022-08-26T10:31:52.015Z,49.56
2022-08-26T10:35:16.971Z,49.55
2022-08-26T10:38:51.035Z,50.39
2022-08-26T10:42:35.487Z,49.67
2022-08-26T10:46:10.216Z,50.04
2022-08-26T10:49:43.003Z,50.36
2022-08-26T10:53:42.523Z,49.40
2022-08-26T10:57:21.663Z,48.32
2022-08-26T11:01:11.556Z,48.34
2022-08-26T11:04:50.786Z,46.90
2022-08-26T11:08:19.507Z,46.08
2022-08-26T11:11:50.781Z,44.92
2022-08-26T11:15:28.163Z,45.86
2022-08-26T11:19:04.223Z,44.56
2022-08-26T11:22:47.930Z,43.88
2022-08-26T11:26:18.874Z,45.06
2022-08-26T11:30:20.754Z,44.37
2022-08-26T11:33:52.134Z,42.92
2022-08-26T11:37:29.325Z,41.76
2022-08-26T11:41:08.946Z,41.69
2022-08-26T11:44:39.864Z,40.71
2022-08-26T11:48:19.729Z,39.46
2022-08-26T11:51:51.852Z,38.75
2022-08-26T11:55:28.694Z,39.68
2022-08-26T11:59:15.544Z,39.51
2022-08-26T12:02:41.265Z,38.32
2022-08-26T12:06:17.559Z,37.55
2022-08-26T12:10:02.129Z,37.87
2022-08-26T12:13:31.370Z,38.10
2022-08-26T12:17:14.024Z,35.75
2022-08-26T12:21:21.546Z,35.94
2022-08-26T12:24:49.355Z,35.54
2022-08-26T12:28:23.108Z,35.57
2022-08-26T12:32:09.644Z,36.51
2022-08-26T12:35:36.640Z,36.02
2022-08-26T12:39:35.923Z,34.82
2022-08-26T12:43:00.527Z,34.96
2022-08-26T12:46:36.755Z,34.23
2022-08-26T12:50:32.153Z,33.70
2022-08-26T12:53:55.110Z,34.62
2022-08-26T12:57:37.427Z,34.63
2022-08-26T13:01:08.739Z,33.46
2022-08-26T13:05:04.179Z,33.48
2022-08-26T13:08:28.207Z,33.07
2022-08-26T13:12:03.479Z,32.96
2022-08-26T13:15:40.053Z,33.53
2022-08-26T13:19:20.571Z,33.69
2022-08-26T13:22:59.118Z,33.22
2022-08-26T13:26:30.985Z,33.00
2022-08-26T13:30:26.205Z,32.72
2022-08-26T13:34:08.788Z,32.62
2022-08-26T13:37:34.892Z,31.42
2022-08-26T13:41:09.798Z,32.55
2022-08-26T13:44:47.809Z,32.70
2022-08-26T13:48:23.556Z,33.05
2022-08-26T13:51:57.994Z,32.34
2022-08-26T13:55:35.205Z,30.82
2022-08-26T13:59:14.703Z,31.92
2022-08-26T14:03:13.084Z,31.78
2022-08-26T14:06:39.623Z,30.72
2022-08-26T14:10:13.547Z,31.54
2022-08-26T14:13:49.353Z,31.49
2022-08-26T14:17:27.427Z,30.79
2022-08-26T14:21:07.154Z,30.26
2022-08-26T14:24:39.107Z,30.42
2022-08-26T14:28:15.818Z,30.62
2022-08-26T14:32:18.892Z,29.43
2022-08-26T14:35:47.971Z,29.26
2022-08-26T14:39:20.229Z,28.93
2022-08-26T14:42:59.242Z,27.67
2022-08-26T14:46:41.795Z,28.07
2022-08-26T14:50:11.958Z,27.69
2022-08-26T14:54:07.003Z,28.55
2022-08-26T14:57:29.497Z,28.31
2022-08-26T15:01:07.683Z,27.18
2022-08-26T15:04:43.099Z,28.03
2022-08-26T15:08:39.508Z,27.28
2022-08-26T15:12:02.517Z,27.33
2022-08-26T15:15:57.350Z,27.24
2022-08-26T15:19:20.880Z,26.17
2022-08-26T15:22:57.546Z,27.56
2022-08-26T15:26:33.433Z,26.98
2022-08-26T15:30:11.532Z,27.32
2022-08-26T15:34:07.641Z,28.27
2022-08-26T15:37:29.587Z,28.83
2022-08-26T15:41:26.081Z,29.48
2022-08-26T15:44:48.352Z,30.44
2022-08-26T15:48:43.994Z,30.77
2022-08-26T15:52:06.123Z,30.93
2022-08-26T15:55:42.803Z,31.50
2022-08-26T15:59:20.797Z,32.18
2022-08-26T16:03:15.234Z,32.72
2022-08-26T16:06:39.507Z,33.19
2022-08-26T16:10:14.669Z,33.74
2022-08-26T16:13:50.742Z,34.22
2022-08-26T16:17:27.622Z,34.86
2022-08-26T16:21:13.231Z,35.53
2022-08-26T16:24:41.413Z,35.93
2022-08-26T16:28:26.331Z,36.89
2022-08-26T16:32:13.511Z,38.26
2022-08-26T16:35:35.864Z,39.21
2022-08-26T16:39:12.299Z,39.84
2022-08-26T16:42:50.425Z,40.70
2022-08-26T16:46:45.095Z,41.35
2022-08-26T16:50:10.460Z,41.78
2022-08-26T16:53:45.762Z,41.80
2022-08-26T16:57:20.651Z,42.21
2022-08-26T17:00:57.224Z,42.34
2022-08-26T17:04:37.487Z,42.85
2022-08-26T17:08:11.105Z,43.22
2022-08-26T17:11:47.464Z,43.60
2022-08-26T17:15:53.365Z,43.65
2022-08-26T17:19:17.619Z,43.80
2022-08-26T17:22:54.525Z,43.96
2022-08-26T17:26:29.358Z,44.49
2022-08-26T17:30:06.502Z,44.51
2022-08-26T17:33:42.152Z,44.85
2022-08-26T17:37:19.029Z,45.06
2022-08-26T17:40:57.561Z,45.63
2022-08-26T17:44:32.399Z,45.73
2022-08-26T17:48:11.227Z,45.78
2022-08-26T17:51:46.508Z,45.79
2022-08-26T17:55:23.065Z,45.90
2022-08-26T17:59:18.650Z,46.17
2022-08-26T18:02:42.088Z,46.15
2022-08-26T18:06:17.113Z,46.36
2022-08-26T18:09:54.884Z,46.40
2022-08-26T18:13:30.684Z,46.64
2022-08-26T18:17:07.912Z,46.83
2022-08-26T18:20:45.603Z,46.76
2022-08-26T18:24:20.883Z,46.88
2022-08-26T18:27:57.998Z,47.06
2022-08-26T18:31:34.919Z,47.03
2022-08-26T18:35:11.854Z,47.15
2022-08-26T18:39:08.306Z,47.41
2022-08-26T18:42:30.060Z,47.68
2022-08-26T18:46:10.051Z,47.59
2022-08-26T18:49:43.398Z,47.94
2022-08-26T18:53:20.575Z,48.03
2022-08-26T18:56:56.923Z,48.27
2022-08-26T19:00:34.098Z,48.64
2022-08-26T19:04:12.880Z,48.73
2022-08-26T19:07:47.949Z,49.18
2022-08-26T19:11:32.660Z,49.32
2022-08-26T19:15:02.675Z,49.72
2022-08-26T19:18:37.857Z,49.98
2022-08-26T19:22:14.702Z,50.31
2022-08-26T19:25:53.105Z,50.66
2022-08-26T19:29:31.902Z,50.75
2022-08-26T19:33:05.599Z,51.04
2022-08-26T19:36:44.813Z,50.99
2022-08-26T19:40:18.706Z,51.18
2022-08-26T19:44:38.100Z,51.60
2022-08-26T19:48:00.026Z,51.75
2022-08-26T19:51:55.872Z,52.03
2022-08-26T19:55:18.935Z,52.16
2022-08-26T19:58:55.626Z,52.62
2022-08-26T20:02:31.544Z,52.98
2022-08-26T20:06:10.691Z,53.22
2022-08-26T20:09:46.317Z,53.85
2022-08-26T20:13:42.150Z,54.48
2022-08-26T20:17:06.268Z,54.55
2022-08-26T20:21:18.019Z,54.90
2022-08-26T20:24:39.683Z,54.95
2022-08-26T20:28:16.530Z,55.20
2022-08-26T20:31:54.778Z,55.56
2022-08-26T20:35:30.231Z,56.61
2022-08-26T20:39:08.976Z,56.68
2022-08-26T20:42:44.187Z,57.07
2022-08-26T20:46:24.706Z,57.47
2022-08-26T20:49:58.156Z,58.08
2022-08-26T20:53:53.394Z,59.39
2022-08-26T20:57:34.491Z,60.44
2022-08-26T21:00:56.799Z,60.54
2022-08-26T21:04:32.991Z,60.46
2022-08-26T21:08:10.164Z,60.53
2022-08-26T21:11:46.483Z,60.50
2022-08-26T21:15:24.065Z,60.52
2022-08-26T21:19:00.521Z,60.52
2022-08-26T21:22:39.828Z,60.52
2022-08-26T21:26:16.561Z,60.56
2022-08-26T21:29:50.621Z,60.28
2022-08-26T21:33:27.375Z,60.21
2022-08-26T21:37:13.311Z,60.16
2022-08-26T21:41:06.707Z,60.12
2022-08-26T21:44:28.387Z,59.99
2022-08-26T21:48:24.622Z,60.05
2022-08-26T21:51:55.326Z,59.94
2022-08-26T21:55:35.946Z,59.89
2022-08-26T21:59:09.401Z,59.93
2022-08-26T22:02:44.718Z,60.03
2022-08-26T22:06:24.205Z,60.61
2022-08-26T22:10:17.889Z,61.71
2022-08-26T22:13:41.756Z,62.14
2022-08-26T22:17:27.489Z,62.28
2022-08-26T22:20:55.518Z,62.22
2022-08-26T22:24:29.879Z,61.94
2022-08-26T22:28:07.397Z,61.80
2022-08-26T22:31:43.528Z,61.67
2022-08-26T22:35:29.079Z,61.49
2022-08-26T22:38:58.879Z,61.30
2022-08-26T22:42:34.472Z,61.18
2022-08-26T22:46:20.694Z,61.13
2022-08-26T22:49:47.840Z,61.21
2022-08-26T22:53:26.145Z,61.28
2022-08-26T22:57:20.373Z,61.45
2022-08-26T23:00:46.699Z,61.79
2022-08-26T23:04:19.438Z,62.57
2022-08-26T23:07:56.863Z,62.99
2022-08-26T23:11:32.804Z,62.98
2022-08-26T23:15:28.098Z,62.81
2022-08-26T23:18:50.508Z,62.53
2022-08-26T23:22:45.672Z,62.25
2022-08-26T23:26:08.249Z,62.00
2022-08-26T23:29:44.075Z,61.73
2022-08-26T23:33:21.245Z,61.50
2022-08-26T23:37:18.263Z,61.34
2022-08-26T23:40:40.714Z,61.11
2022-08-26T23:44:18.146Z,60.84
2022-08-26T23:47:56.307Z,60.62
2022-08-26T23:51:50.338Z,60.47
2022-08-26T23:55:13.458Z,60.32
2022-08-26T23:58:49.489Z,60.25
